Terminal Aerodrome Forecast
Issued by NWS

Home | Current Version | Previous Version | Text Only | Print | Product List | Glossary On
Versions: 1 2 3 4 5 6 7 8 9 10 11 12 13 14
000
FTUS42 KGSP 300520
TAFAND
TAF
KAND 300520Z 3006/0106 20005KT P6SM FEW060 SCT110
      TEMPO 3006/3008 BKN060 OVC110
     FM301300 25009KT P6SM SCT060
     FM301800 25012G20KT P6SM BKN060 PROB30 3019/3023 4SM TSRA
      BKN040CB
     FM010000 24009KT P6SM BKN060=

USA.gov is the U.S. government's official web portal to all federal, state and local government web resources and services.